Time;durP1;ratioP1;P1;durP2;ratioP2;P2;SDS_P1;SDS_P2;PMS_P1;PMS_P2;Temp;Humidity;BMP_temperature;BMP_pressure;BME280_temperature;BME280_humidity;BME280_pressure;Samples;Min_cycle;Max_cycle;Signal;HPM_P1;HPM_P2
2022/12/15 00:38:44;;;;;;;1.48;0.90;;;;;;;;;;5136862;27;20041;-83
2022/12/15 00:41:11;;;;;;;1.45;1.15;;;;;;;;;;5118344;27;20389;-81
2022/12/15 00:43:37;;;;;;;2.65;0.82;;;;;;;;;;5136927;27;20106;-87
2022/12/15 00:48:48;;;;;;;1.15;0.80;;;;;;;;;;5137043;27;20169;-85
2022/12/15 00:51:15;;;;;;;1.88;1.00;;;;;;;;;;5136562;27;20020;-83
2022/12/15 01:21:12;;;;;;;2.08;1.02;;;;;;;;;;5136533;27;20535;-85
2022/12/15 01:23:38;;;;;;;1.63;1.13;;;;;;;;;;5135841;27;20027;-80
2022/12/15 01:26:05;;;;;;;2.20;1.38;;;;;;;;;;5136758;27;20016;-85
2022/12/15 01:28:31;;;;;;;1.17;0.68;;;;;;;;;;5117688;27;20549;-81
2022/12/15 01:30:58;;;;;;;1.23;0.80;;;;;;;;;;5135901;27;20071;-80
2022/12/15 01:33:24;;;;;;;1.77;1.00;;;;;;;;;;5136028;27;20011;-82
2022/12/15 01:36:08;;;;;;;1.83;1.20;;;;;;;;;;5117424;27;20500;-83
2022/12/15 01:38:34;;;;;;;1.23;1.00;;;;;;;;;;5117360;27;20019;-85
2022/12/15 01:41:02;;;;;;;2.15;1.10;;;;;;;;;;5136018;27;20062;-84
2022/12/15 01:43:30;;;;;;;1.80;1.23;;;;;;;;;;5134945;27;20386;-83
2022/12/15 01:45:57;;;;;;;3.40;1.60;;;;;;;;;;5117143;27;20434;-82
2022/12/15 01:48:39;;;;;;;1.48;1.17;;;;;;;;;;5135065;27;20524;-82
2022/12/15 01:51:10;;;;;;;1.92;1.50;;;;;;;;;;5135658;27;20068;-82
2022/12/15 01:53:57;;;;;;;2.30;1.38;;;;;;;;;;5135590;27;20020;-86
2022/12/15 01:56:24;;;;;;;1.92;1.20;;;;;;;;;;5135672;27;20818;-89
2022/12/15 01:58:52;;;;;;;3.25;1.25;;;;;;;;;;5135314;27;20073;-83
2022/12/15 02:01:18;;;;;;;2.80;1.73;;;;;;;;;;5117113;27;20025;-84
2022/12/15 02:03:46;;;;;;;2.35;1.65;;;;;;;;;;5135508;27;20393;-84
2022/12/15 02:06:12;;;;;;;2.17;1.75;;;;;;;;;;5135181;27;20045;-85
2022/12/15 02:08:40;;;;;;;2.22;1.50;;;;;;;;;;5135443;27;20023;-86
2022/12/15 02:11:29;;;;;;;1.88;1.13;;;;;;;;;;5135241;27;20015;-87
2022/12/15 02:14:02;;;;;;;3.75;1.73;;;;;;;;;;5122618;27;20039;-87
2022/12/15 02:16:34;;;;;;;2.65;1.60;;;;;;;;;;5135303;27;20077;-84
2022/12/15 02:19:19;;;;;;;3.28;1.30;;;;;;;;;;5135187;27;20027;-89
2022/12/15 02:21:51;;;;;;;3.88;1.85;;;;;;;;;;5135331;27;20031;-86
2022/12/15 02:24:35;;;;;;;2.58;1.65;;;;;;;;;;5135339;27;20412;-86
2022/12/15 02:27:20;;;;;;;2.25;1.15;;;;;;;;;;5135141;27;20446;-87
2022/12/15 02:30:04;;;;;;;2.72;1.60;;;;;;;;;;5135408;27;20022;-86
2022/12/15 02:32:34;;;;;;;3.65;2.17;;;;;;;;;;5135503;27;20435;-87
2022/12/15 02:35:07;;;;;;;3.00;1.70;;;;;;;;;;5136394;27;20068;-81
2022/12/15 02:37:38;;;;;;;3.17;1.55;;;;;;;;;;5116925;27;20034;-84
2022/12/15 02:40:05;;;;;;;2.83;1.80;;;;;;;;;;5116831;27;20027;-85
2022/12/15 02:42:32;;;;;;;4.00;1.67;;;;;;;;;;5134804;27;20374;-86
2022/12/15 02:45:03;;;;;;;3.15;1.50;;;;;;;;;;5135219;27;20019;-83
2022/12/15 02:47:44;;;;;;;2.17;1.25;;;;;;;;;;5134742;27;20547;-88
2022/12/15 02:50:11;;;;;;;2.65;1.40;;;;;;;;;;5134758;27;20373;-88
2022/12/15 02:52:39;;;;;;;3.45;2.00;;;;;;;;;;5134656;27;20016;-83
2022/12/15 02:55:09;;;;;;;2.53;1.63;;;;;;;;;;5116315;27;20477;-84
2022/12/15 02:57:53;;;;;;;3.08;1.38;;;;;;;;;;5116704;27;20046;-86
2022/12/15 03:00:19;;;;;;;;;;;;;;;;;;5117078;27;20027;-91
2022/12/15 03:02:50;;;;;;;2.70;1.80;;;;;;;;;;5134708;27;19904;-88
2022/12/15 03:05:17;;;;;;;4.35;1.95;;;;;;;;;;5134802;27;20102;-87
2022/12/15 03:07:43;;;;;;;2.80;1.92;;;;;;;;;;5134398;27;20070;-83
2022/12/15 03:10:11;;;;;;;3.08;2.33;;;;;;;;;;5134763;27;20027;-90
2022/12/15 03:12:37;;;;;;;4.78;2.03;;;;;;;;;;5116149;27;20076;-81
2022/12/15 03:15:03;;;;;;;2.15;1.58;;;;;;;;;;5115825;27;20083;-83
2022/12/15 03:17:29;;;;;;;3.47;1.70;;;;;;;;;;5134628;27;20027;-86
2022/12/15 03:19:56;;;;;;;3.40;2.05;;;;;;;;;;5134358;27;20020;-90
2022/12/15 03:22:22;;;;;;;4.35;2.03;;;;;;;;;;5134425;27;20118;-90
2022/12/15 03:24:48;;;;;;;3.15;2.20;;;;;;;;;;5134329;27;20034;-85
2022/12/15 03:27:14;;;;;;;5.47;1.80;;;;;;;;;;5134324;27;20553;-87
2022/12/15 03:29:41;;;;;;;2.55;1.58;;;;;;;;;;5116194;27;20023;-87
2022/12/15 03:32:07;;;;;;;3.38;1.80;;;;;;;;;;5134448;27;20424;-84
2022/12/15 03:34:33;;;;;;;2.70;1.70;;;;;;;;;;5134323;27;20027;-82
2022/12/15 03:36:59;;;;;;;4.15;1.42;;;;;;;;;;5115936;27;20016;-85
2022/12/15 03:39:26;;;;;;;2.75;1.63;;;;;;;;;;5115950;27;20450;-81
2022/12/15 03:41:52;;;;;;;2.72;1.50;;;;;;;;;;5134111;27;20046;-85
2022/12/15 03:44:18;;;;;;;2.78;1.27;;;;;;;;;;5134138;28;20056;-81
2022/12/15 03:46:44;;;;;;;2.63;1.77;;;;;;;;;;5134044;28;20470;-85
2022/12/15 03:49:10;;;;;;;3.15;1.40;;;;;;;;;;5133673;28;20072;-87
2022/12/15 03:51:36;;;;;;;2.78;1.05;;;;;;;;;;5134090;28;20049;-87
2022/12/15 03:54:02;;;;;;;2.22;1.20;;;;;;;;;;5115509;28;20355;-87
2022/12/15 03:56:28;;;;;;;2.33;1.40;;;;;;;;;;5134157;28;20034;-85
2022/12/15 03:58:54;;;;;;;1.40;1.15;;;;;;;;;;5134127;28;20027;-88
2022/12/15 04:01:20;;;;;;;2.20;1.60;;;;;;;;;;5115692;28;20087;-88
2022/12/15 04:03:46;;;;;;;2.35;1.45;;;;;;;;;;5134204;28;20043;-86
2022/12/15 04:06:12;;;;;;;2.00;1.60;;;;;;;;;;5134095;28;20027;-89
2022/12/15 04:08:38;;;;;;;5.15;2.67;;;;;;;;;;5137314;27;20137;-86
2022/12/15 04:11:05;;;;;;;3.10;2.80;;;;;;;;;;5138079;27;20015;-83
2022/12/15 04:13:31;;;;;;;5.03;2.80;;;;;;;;;;5138475;27;20451;-83
2022/12/15 04:15:57;;;;;;;3.33;2.50;;;;;;;;;;5119584;27;20059;-87
2022/12/15 04:18:23;;;;;;;4.55;2.35;;;;;;;;;;5137540;27;20025;-83
2022/12/15 04:20:49;;;;;;;6.15;4.82;;;;;;;;;;5137719;27;20023;-88
2022/12/15 04:23:15;;;;;;;7.97;7.15;;;;;;;;;;5137509;27;20022;-84
2022/12/15 05:32:22;;;;;;;9.77;7.22;;;;;;;;;;5115599;28;20039;-84
2022/12/15 05:34:48;;;;;;;12.60;9.25;;;;;;;;;;5114021;28;20046;-88
2022/12/15 05:37:14;;;;;;;14.05;10.48;;;;;;;;;;5119058;27;20084;-84
2022/12/15 05:39:41;;;;;;;9.18;7.45;;;;;;;;;;5135852;27;20492;-85
2022/12/15 05:42:07;;;;;;;13.88;9.32;;;;;;;;;;5134600;27;20529;-86
2022/12/15 05:44:36;;;;;;;11.88;8.68;;;;;;;;;;5134493;27;20428;-85
2022/12/15 05:47:03;;;;;;;8.65;6.85;;;;;;;;;;5133336;27;20024;-85
2022/12/15 05:49:29;;;;;;;10.55;7.45;;;;;;;;;;5112701;28;20019;-86
2022/12/15 05:51:56;;;;;;;10.98;7.80;;;;;;;;;;5113456;28;20023;-82
2022/12/15 05:54:22;;;;;;;17.33;11.77;;;;;;;;;;5113760;28;20030;-82
2022/12/15 05:56:48;;;;;;;17.88;12.80;;;;;;;;;;5114789;28;20019;-82
2022/12/15 05:59:15;;;;;;;14.00;10.30;;;;;;;;;;5121654;27;20026;-84
2022/12/15 06:01:41;;;;;;;10.23;8.27;;;;;;;;;;5114162;28;20035;-86
2022/12/15 06:04:08;;;;;;;8.63;7.72;;;;;;;;;;5114441;28;20045;-86
2022/12/15 06:06:34;;;;;;;7.50;6.75;;;;;;;;;;5113041;28;20028;-84
2022/12/15 06:09:02;;;;;;;8.63;7.57;;;;;;;;;;5132969;27;20027;-86
2022/12/15 06:11:28;;;;;;;9.77;8.02;;;;;;;;;;5134255;27;20020;-86
2022/12/15 06:13:55;;;;;;;10.52;8.82;;;;;;;;;;5135185;27;20094;-81
2022/12/15 06:16:22;;;;;;;9.77;8.25;;;;;;;;;;5129858;27;20562;-88
2022/12/15 06:18:49;;;;;;;10.02;8.98;;;;;;;;;;5125917;27;20059;-86
2022/12/15 06:21:18;;;;;;;15.18;11.23;;;;;;;;;;5097502;28;20164;-88
2022/12/15 06:23:45;;;;;;;10.18;7.93;;;;;;;;;;5096030;28;20026;-88
2022/12/15 06:26:15;;;;;;;15.95;12.75;;;;;;;;;;5108592;27;20019;-85
2022/12/15 06:28:41;;;;;;;34.42;23.63;;;;;;;;;;5116623;27;20027;-83
2022/12/15 06:31:11;;;;;;;18.80;15.52;;;;;;;;;;5134559;27;20031;-88
2022/12/15 06:33:37;;;;;;;17.17;15.02;;;;;;;;;;5135223;27;20031;-87
2022/12/15 06:36:04;;;;;;;21.63;18.42;;;;;;;;;;5117291;27;20398;-85
2022/12/15 06:38:31;;;;;;;23.88;18.20;;;;;;;;;;5116630;27;20022;-91
2022/12/15 06:41:15;;;;;;;23.27;17.83;;;;;;;;;;5116233;27;20482;-85
2022/12/15 06:43:42;;;;;;;21.65;18.13;;;;;;;;;;5135217;27;20022;-82
2022/12/15 06:46:08;;;;;;;32.35;12.40;;;;;;;;;;5124802;27;20023;-83
2022/12/15 06:48:35;;;;;;;27.20;11.50;;;;;;;;;;5128264;27;20027;-83
2022/12/15 06:51:08;;;;;;;30.92;11.02;;;;;;;;;;5124068;27;20040;-82
2022/12/15 06:53:39;;;;;;;18.90;10.68;;;;;;;;;;5094187;28;20016;-81
2022/12/15 06:56:07;;;;;;;18.13;10.20;;;;;;;;;;5128223;27;20031;-83
2022/12/15 06:58:33;;;;;;;13.82;8.38;;;;;;;;;;5116260;27;20114;-80
2022/12/15 07:01:06;;;;;;;11.07;7.38;;;;;;;;;;5126685;27;20075;-86
2022/12/15 07:03:33;;;;;;;12.70;9.30;;;;;;;;;;5124036;27;20031;-84
2022/12/15 07:06:03;;;;;;;14.07;10.50;;;;;;;;;;5128383;27;20063;-85
2022/12/15 07:08:30;;;;;;;17.02;13.98;;;;;;;;;;5094704;28;20019;-83
2022/12/15 07:10:56;;;;;;;33.90;27.25;;;;;;;;;;5113267;28;20023;-82
2022/12/15 07:13:22;;;;;;;22.60;15.85;;;;;;;;;;5148560;27;20023;-82
2022/12/15 07:15:48;;;;;;;13.60;10.10;;;;;;;;;;5108293;28;20062;-87
2022/12/15 07:18:15;;;;;;;15.85;11.32;;;;;;;;;;5108024;28;20418;-86
2022/12/15 07:20:43;;;;;;;16.33;12.57;;;;;;;;;;5092226;28;20067;-79
2022/12/15 07:23:10;;;;;;;26.13;21.13;;;;;;;;;;5112347;28;20015;-83
2022/12/15 07:25:36;;;;;;;29.85;24.50;;;;;;;;;;5117273;27;20088;-80
2022/12/15 07:28:03;;;;;;;44.13;39.35;;;;;;;;;;5108884;28;20031;-82
2022/12/15 07:30:29;;;;;;;42.75;29.52;;;;;;;;;;5111105;28;20023;-84
2022/12/15 07:32:55;;;;;;;86.47;43.88;;;;;;;;;;5108650;27;20015;-81
2022/12/15 07:35:24;;;;;;;100.18;72.00;;;;;;;;;;5108646;28;20027;-85
2022/12/15 07:37:50;;;;;;;89.15;47.55;;;;;;;;;;5100382;27;20024;-84
2022/12/15 07:40:16;;;;;;;90.63;71.63;;;;;;;;;;5114126;27;20056;-85
2022/12/15 07:42:43;;;;;;;70.00;42.92;;;;;;;;;;5112499;28;20019;-84
2022/12/15 07:45:10;;;;;;;109.82;68.97;;;;;;;;;;5112641;28;20032;-86
2022/12/15 07:47:36;;;;;;;95.72;64.80;;;;;;;;;;5111779;28;20513;-86
2022/12/15 07:50:02;;;;;;;54.95;43.15;;;;;;;;;;5112279;28;20479;-84
2022/12/15 07:52:29;;;;;;;54.25;39.42;;;;;;;;;;5103120;28;20021;-83
2022/12/15 07:54:56;;;;;;;30.73;22.70;;;;;;;;;;5108760;28;20023;-83
2022/12/15 07:57:25;;;;;;;42.75;28.33;;;;;;;;;;5106478;28;20118;-88
2022/12/15 07:59:51;;;;;;;30.33;20.88;;;;;;;;;;5102631;28;20028;-85
2022/12/15 08:02:28;;;;;;;22.13;14.45;;;;;;;;;;5095417;28;20490;-84
2022/12/15 08:04:54;;;;;;;22.58;15.00;;;;;;;;;;5094852;28;21230;-87
2022/12/15 08:07:21;;;;;;;28.60;18.05;;;;;;;;;;5103702;28;20034;-88
2022/12/15 08:09:50;;;;;;;30.48;21.58;;;;;;;;;;5105224;28;20032;-86
2022/12/15 08:12:18;;;;;;;34.30;22.80;;;;;;;;;;5112070;28;20026;-85
2022/12/15 08:14:44;;;;;;;39.00;31.45;;;;;;;;;;5105640;28;20113;-86
2022/12/15 08:17:11;;;;;;;37.88;26.00;;;;;;;;;;5120560;28;20023;-86
2022/12/15 08:19:38;;;;;;;56.88;32.35;;;;;;;;;;5111550;28;20019;-87
2022/12/15 08:22:04;;;;;;;89.40;39.13;;;;;;;;;;5112196;28;20028;-84
2022/12/15 08:24:30;;;;;;;403.45;146.65;;;;;;;;;;5119567;28;20467;-85
2022/12/15 08:26:56;;;;;;;383.75;137.98;;;;;;;;;;5102456;28;20042;-85
2022/12/15 08:29:25;;;;;;;65.63;29.27;;;;;;;;;;5130582;28;20478;-85
2022/12/15 08:31:51;;;;;;;91.43;34.65;;;;;;;;;;5097711;28;20027;-83
2022/12/15 08:34:17;;;;;;;67.43;27.67;;;;;;;;;;5117654;28;20034;-84
2022/12/15 08:36:43;;;;;;;114.38;41.47;;;;;;;;;;5112854;28;20068;-84
2022/12/15 08:39:09;;;;;;;88.10;32.85;;;;;;;;;;5119748;28;20023;-85
2022/12/15 08:41:36;;;;;;;76.65;31.80;;;;;;;;;;5093780;28;20520;-86
2022/12/15 08:44:02;;;;;;;63.60;31.55;;;;;;;;;;5119346;28;20035;-80
2022/12/15 08:46:29;;;;;;;104.07;40.67;;;;;;;;;;5121933;27;20109;-85
2022/12/15 08:48:56;;;;;;;87.25;44.78;;;;;;;;;;5131228;27;20026;-86
2022/12/15 08:51:26;;;;;;;161.77;85.22;;;;;;;;;;5107427;28;20371;-84
2022/12/15 08:53:53;;;;;;;314.70;113.28;;;;;;;;;;5126373;27;20027;-85
2022/12/15 08:56:21;;;;;;;109.22;58.47;;;;;;;;;;5134812;27;20027;-88
2022/12/15 08:58:48;;;;;;;227.02;80.80;;;;;;;;;;5110067;27;20076;-84
2022/12/15 09:01:17;;;;;;;154.55;59.92;;;;;;;;;;5107741;27;20027;-88
2022/12/15 09:03:43;;;;;;;131.30;54.45;;;;;;;;;;5113401;27;20031;-86
2022/12/15 09:06:14;;;;;;;130.45;57.92;;;;;;;;;;5131705;27;20055;-85
2022/12/15 09:08:41;;;;;;;377.83;251.60;;;;;;;;;;5135244;27;20055;-84
2022/12/15 09:11:10;;;;;;;180.88;73.18;;;;;;;;;;5127913;27;20055;-85
2022/12/15 09:13:37;;;;;;;157.55;63.30;;;;;;;;;;5121632;27;20043;-89
2022/12/15 09:16:05;;;;;;;67.30;31.33;;;;;;;;;;5107992;27;20058;-84
2022/12/15 09:18:32;;;;;;;74.80;31.23;;;;;;;;;;5132547;27;20033;-88
2022/12/15 09:21:07;;;;;;;458.67;151.45;;;;;;;;;;5132658;27;20024;-83
2022/12/15 09:23:34;;;;;;;369.65;128.50;;;;;;;;;;5131400;27;20016;-85
2022/12/15 09:26:05;;;;;;;164.73;55.95;;;;;;;;;;5123638;27;20527;-85
2022/12/15 09:28:31;;;;;;;260.65;105.32;;;;;;;;;;5096375;28;20058;-85
2022/12/15 09:31:08;;;;;;;75.20;40.55;;;;;;;;;;5115184;28;20528;-84
2022/12/15 09:33:34;;;;;;;34.95;18.13;;;;;;;;;;5126149;27;20030;-88
2022/12/15 09:36:00;;;;;;;48.47;23.60;;;;;;;;;;5109425;27;20027;-85
2022/12/15 09:38:26;;;;;;;169.93;64.05;;;;;;;;;;5134592;27;20023;-85
2022/12/15 09:40:56;;;;;;;119.70;50.17;;;;;;;;;;5130414;27;20455;-88
2022/12/15 09:43:26;;;;;;;112.07;54.28;;;;;;;;;;5113228;27;20019;-85
2022/12/15 09:45:58;;;;;;;88.03;44.65;;;;;;;;;;5132325;27;20591;-83
2022/12/15 09:48:29;;;;;;;70.55;41.35;;;;;;;;;;5104339;27;20036;-85
2022/12/15 09:50:56;;;;;;;165.00;85.55;;;;;;;;;;5132091;27;20089;-84
2022/12/15 09:53:24;;;;;;;42.97;21.88;;;;;;;;;;5111810;27;20214;-84
2022/12/15 09:55:56;;;;;;;40.10;17.63;;;;;;;;;;5111680;27;20024;-85
2022/12/15 09:58:41;;;;;;;40.67;15.00;;;;;;;;;;5127496;27;20020;-86
2022/12/15 10:01:30;;;;;;;35.00;12.85;;;;;;;;;;5126494;27;20032;-82
2022/12/15 10:04:18;;;;;;;55.95;28.55;;;;;;;;;;5099250;27;20027;-85
2022/12/15 10:06:57;;;;;;;68.07;26.70;;;;;;;;;;5111142;27;20560;-87
2022/12/15 10:09:28;;;;;;;58.25;22.10;;;;;;;;;;5127841;27;20493;-90
2022/12/15 10:11:57;;;;;;;83.15;27.83;;;;;;;;;;5109486;27;20019;-84
2022/12/15 10:14:26;;;;;;;41.08;16.35;;;;;;;;;;5130385;27;20046;-86
2022/12/15 10:17:11;;;;;;;57.53;19.30;;;;;;;;;;5129859;27;20053;-86
2022/12/15 10:19:56;;;;;;;70.90;22.75;;;;;;;;;;5117229;27;20106;-84
2022/12/15 10:22:22;;;;;;;;;;;;;;;;;;5131866;27;20572;-86
2022/12/15 10:24:50;;;;;;;39.95;14.90;;;;;;;;;;5109398;27;20289;-85
2022/12/15 10:27:35;;;;;;;44.08;16.30;;;;;;;;;;5124663;27;20054;-84
2022/12/15 10:30:05;;;;;;;54.55;18.50;;;;;;;;;;5113406;27;20019;-86
2022/12/15 10:32:39;;;;;;;49.28;19.00;;;;;;;;;;5133419;27;20030;-90
2022/12/15 10:35:14;;;;;;;41.67;14.48;;;;;;;;;;5108894;27;20039;-88
2022/12/15 10:37:41;;;;;;;42.58;16.92;;;;;;;;;;5113143;27;20512;-88
2022/12/15 10:40:07;;;;;;;22.30;8.65;;;;;;;;;;5112560;27;20027;-83
2022/12/15 10:42:44;;;;;;;13.73;5.93;;;;;;;;;;5099725;28;20478;-87
2022/12/15 10:45:28;;;;;;;47.67;15.65;;;;;;;;;;5133036;27;20027;-85
2022/12/15 10:48:13;;;;;;;91.30;28.88;;;;;;;;;;5096823;27;20027;-85
2022/12/15 10:50:39;;;;;;;;;;;;;;;;;;5132910;27;20473;-85
2022/12/15 10:53:09;;;;;;;59.03;28.85;;;;;;;;;;5133521;27;19908;-85
2022/12/15 10:55:38;;;;;;;47.78;24.00;;;;;;;;;;5131409;27;20016;-73
2022/12/15 10:58:19;;;;;;;12.77;8.63;;;;;;;;;;5105366;28;20435;-83
2022/12/15 11:00:46;;;;;;;137.93;40.80;;;;;;;;;;5129954;27;20057;-84
2022/12/15 11:03:35;;;;;;;93.10;25.75;;;;;;;;;;5124703;27;20042;-86
2022/12/15 11:06:01;;;;;;;106.93;30.83;;;;;;;;;;5110486;27;20032;-87
2022/12/15 11:08:28;;;;;;;66.70;23.90;;;;;;;;;;5123546;27;20469;-83
2022/12/15 11:14:02;;;;;;;81.55;31.98;;;;;;;;;;5124747;27;20081;-77
2022/12/15 11:16:30;;;;;;;88.45;40.33;;;;;;;;;;5127809;27;20134;-83
2022/12/15 11:19:15;;;;;;;138.40;46.38;;;;;;;;;;5118454;27;20099;-84
2022/12/15 11:21:45;;;;;;;97.22;37.67;;;;;;;;;;5122079;27;20417;-83
2022/12/15 11:24:16;;;;;;;123.40;43.47;;;;;;;;;;5103070;27;20444;-87
2022/12/15 11:26:42;;;;;;;97.35;40.42;;;;;;;;;;5129915;27;20031;-79
2022/12/15 11:29:08;;;;;;;88.53;35.70;;;;;;;;;;5119674;27;20028;-83
2022/12/15 11:31:39;;;;;;;710.10;235.20;;;;;;;;;;5106297;27;20394;-84
2022/12/15 11:34:16;;;;;;;662.13;229.05;;;;;;;;;;5110337;28;20382;-88
2022/12/15 11:37:01;;;;;;;683.92;254.52;;;;;;;;;;5128145;27;20020;-84
2022/12/15 11:39:46;;;;;;;528.80;223.05;;;;;;;;;;5104778;28;20035;-85
2022/12/15 11:42:15;;;;;;;489.08;199.00;;;;;;;;;;5110785;27;20060;-84
2022/12/15 11:44:58;;;;;;;463.58;214.15;;;;;;;;;;5132244;27;20030;-87
2022/12/15 11:47:34;;;;;;;53.53;30.15;;;;;;;;;;5106703;28;20031;-84
2022/12/15 11:50:04;;;;;;;87.97;39.92;;;;;;;;;;5109637;28;20075;-85
2022/12/15 11:52:34;;;;;;;92.28;40.17;;;;;;;;;;5104829;28;20027;-84
2022/12/15 11:55:07;;;;;;;42.13;24.63;;;;;;;;;;5106704;28;20023;-85
2022/12/15 11:57:42;;;;;;;36.05;22.33;;;;;;;;;;5131574;28;20156;-83
2022/12/15 12:00:30;;;;;;;39.33;24.10;;;;;;;;;;5111652;28;20074;-83
2022/12/15 12:03:15;;;;;;;47.08;26.40;;;;;;;;;;5119100;28;20086;-83
2022/12/15 12:06:00;;;;;;;46.70;26.35;;;;;;;;;;5100003;28;20470;-76
2022/12/15 12:08:26;;;;;;;;;;;;;;;;;;5119288;28;20031;-85
2022/12/15 12:10:59;;;;;;;32.92;17.95;;;;;;;;;;5124267;28;19914;-84
2022/12/15 12:13:25;;;;;;;71.38;27.23;;;;;;;;;;5108494;28;20623;-84
2022/12/15 12:15:57;;;;;;;40.33;19.88;;;;;;;;;;5132513;28;20073;-83
2022/12/15 12:18:28;;;;;;;40.85;21.02;;;;;;;;;;5127816;28;20094;-89
2022/12/15 12:21:06;;;;;;;273.70;92.43;;;;;;;;;;5108778;28;20027;-85
2022/12/15 12:23:40;;;;;;;234.43;83.28;;;;;;;;;;5119814;28;20055;-84
2022/12/15 12:26:10;;;;;;;197.13;84.93;;;;;;;;;;5114097;28;20091;-84
2022/12/15 12:28:42;;;;;;;33.60;21.40;;;;;;;;;;5132216;27;20482;-89
2022/12/15 12:31:15;;;;;;;50.55;25.65;;;;;;;;;;5127895;27;20687;-84
2022/12/15 12:33:45;;;;;;;48.10;32.20;;;;;;;;;;5115928;28;20428;-83
2022/12/15 12:36:12;;;;;;;45.92;22.20;;;;;;;;;;5115534;27;20432;-82
2022/12/15 12:38:44;;;;;;;79.35;32.13;;;;;;;;;;5117708;27;20363;-82
2022/12/15 12:41:13;;;;;;;57.45;26.95;;;;;;;;;;5134262;27;20031;-78
2022/12/15 12:44:02;;;;;;;58.22;26.92;;;;;;;;;;5117262;27;20027;-83
2022/12/15 12:46:33;;;;;;;59.45;28.27;;;;;;;;;;5104650;28;20039;-81
2022/12/15 12:48:59;;;;;;;41.63;23.20;;;;;;;;;;5125011;27;20055;-85
2022/12/15 12:51:37;;;;;;;26.73;14.45;;;;;;;;;;5135083;27;20022;-79
2022/12/15 12:54:22;;;;;;;51.83;21.50;;;;;;;;;;5129321;27;20023;-82
2022/12/15 12:56:48;;;;;;;64.50;25.02;;;;;;;;;;5115940;27;20486;-86
2022/12/15 12:59:35;;;;;;;65.97;33.72;;;;;;;;;;5123886;27;20032;-83
2022/12/15 13:02:32;;;;;;;75.05;32.92;;;;;;;;;;5107665;27;20030;-86
2022/12/15 13:04:59;;;;;;;46.30;22.55;;;;;;;;;;5115033;27;20046;-81
2022/12/15 13:07:39;;;;;;;56.08;24.13;;;;;;;;;;5128709;27;20023;-81
2022/12/15 13:10:08;;;;;;;49.33;23.02;;;;;;;;;;5111958;28;20046;-82
2022/12/15 13:12:36;;;;;;;58.83;24.52;;;;;;;;;;5123772;27;20490;-80
2022/12/15 13:15:04;;;;;;;549.25;193.45;;;;;;;;;;5129329;27;20071;-84
2022/12/15 13:17:31;;;;;;;432.52;134.18;;;;;;;;;;5126275;27;20111;-84
2022/12/15 13:19:57;;;;;;;54.78;29.80;;;;;;;;;;5100348;27;20084;-84
2022/12/15 13:22:42;;;;;;;56.50;26.60;;;;;;;;;;5125604;27;20504;-81
2022/12/15 13:25:26;;;;;;;40.65;24.67;;;;;;;;;;5128060;27;20031;-81
2022/12/15 13:27:55;;;;;;;63.92;36.70;;;;;;;;;;5112682;27;20511;-81
2022/12/15 13:30:21;;;;;;;46.75;28.10;;;;;;;;;;5121342;27;20066;-81
2022/12/15 13:32:51;;;;;;;61.30;28.38;;;;;;;;;;5134131;27;20023;-82
2022/12/15 13:35:31;;;;;;;60.22;29.58;;;;;;;;;;5122646;27;20029;-81
2022/12/15 13:38:01;;;;;;;148.15;56.00;;;;;;;;;;5132716;27;20031;-84
2022/12/15 13:40:32;;;;;;;298.42;144.10;;;;;;;;;;5133592;27;20031;-83
2022/12/15 13:43:04;;;;;;;298.35;129.45;;;;;;;;;;5109740;27;20039;-83
2022/12/15 13:45:37;;;;;;;311.95;153.73;;;;;;;;;;5126905;27;20519;-83
2022/12/15 13:48:12;;;;;;;50.40;30.73;;;;;;;;;;5134851;27;20355;-80
2022/12/15 13:50:50;;;;;;;31.40;18.77;;;;;;;;;;5125055;27;20031;-80
2022/12/15 13:53:19;;;;;;;66.15;44.75;;;;;;;;;;5122821;27;20053;-85
2022/12/15 13:55:52;;;;;;;100.65;67.40;;;;;;;;;;5127382;27;20489;-82
2022/12/15 13:58:19;;;;;;;61.75;43.78;;;;;;;;;;5120520;27;20517;-81
2022/12/15 14:00:50;;;;;;;56.88;35.90;;;;;;;;;;5129966;27;20028;-84
2022/12/15 14:03:16;;;;;;;53.33;38.22;;;;;;;;;;5131616;27;20036;-83
2022/12/15 14:05:48;;;;;;;61.55;42.05;;;;;;;;;;5124615;27;20024;-82
2022/12/15 14:08:15;;;;;;;54.08;30.08;;;;;;;;;;5117398;27;20050;-81
2022/12/15 14:11:00;;;;;;;50.75;33.03;;;;;;;;;;5135087;27;20015;-86
2022/12/15 14:13:30;;;;;;;63.83;41.47;;;;;;;;;;5133248;27;20076;-82
2022/12/15 14:15:59;;;;;;;59.97;35.83;;;;;;;;;;5131433;27;20491;-84
2022/12/15 14:18:25;;;;;;;48.10;35.05;;;;;;;;;;5115541;27;20023;-86
2022/12/15 14:20:51;;;;;;;46.05;39.72;;;;;;;;;;5132613;27;20024;-84
2022/12/15 14:23:18;;;;;;;49.40;39.15;;;;;;;;;;5131683;27;20052;-80
2022/12/15 14:26:01;;;;;;;44.00;33.58;;;;;;;;;;5128857;27;20027;-84
2022/12/15 14:28:29;;;;;;;97.35;67.82;;;;;;;;;;5115779;27;20031;-84
2022/12/15 14:30:59;;;;;;;78.35;59.13;;;;;;;;;;5134568;27;20023;-83
2022/12/15 14:33:26;;;;;;;61.17;47.90;;;;;;;;;;5134069;27;20121;-81
2022/12/15 14:35:54;;;;;;;38.40;29.27;;;;;;;;;;5134287;27;20087;-82
2022/12/15 14:38:30;;;;;;;51.65;40.95;;;;;;;;;;5133939;27;20019;-80
2022/12/15 14:40:57;;;;;;;59.22;43.15;;;;;;;;;;5100992;28;20023;-82
2022/12/15 14:43:28;;;;;;;47.03;39.90;;;;;;;;;;5113282;28;20072;-81
2022/12/15 14:45:56;;;;;;;30.30;23.45;;;;;;;;;;5112201;28;20494;-82
2022/12/15 14:48:42;;;;;;;20.63;16.42;;;;;;;;;;5122828;27;20039;-83
2022/12/15 14:51:09;;;;;;;27.20;18.23;;;;;;;;;;5129252;27;20019;-83
2022/12/15 14:53:38;;;;;;;32.50;22.98;;;;;;;;;;5130207;27;20058;-83
2022/12/15 14:56:14;;;;;;;38.60;26.15;;;;;;;;;;5121859;27;20020;-82
2022/12/15 14:58:41;;;;;;;43.38;29.00;;;;;;;;;;5117313;27;20022;-82
2022/12/15 15:01:25;;;;;;;26.48;18.15;;;;;;;;;;5121395;27;20059;-82
2022/12/15 15:04:18;;;;;;;28.25;19.17;;;;;;;;;;5122843;27;20505;-81
2022/12/15 15:06:44;;;;;;;25.02;18.75;;;;;;;;;;5118713;27;20050;-81
2022/12/15 15:09:45;;;;;;;26.45;17.98;;;;;;;;;;5121621;27;20027;-82
2022/12/15 15:12:30;;;;;;;24.77;18.20;;;;;;;;;;4993710;28;20625;-81
2022/12/15 15:14:56;;;;;;;28.45;20.33;;;;;;;;;;4989906;28;20061;-82
2022/12/15 15:17:23;;;;;;;25.75;20.23;;;;;;;;;;4989455;28;20049;-82
2022/12/15 15:19:54;;;;;;;29.08;21.38;;;;;;;;;;5016044;28;20492;-83
2022/12/15 15:22:25;;;;;;;29.48;23.02;;;;;;;;;;5081482;28;20032;-81
2022/12/15 15:24:52;;;;;;;27.27;19.63;;;;;;;;;;5080827;28;20028;-81
2022/12/15 15:27:24;;;;;;;29.17;21.83;;;;;;;;;;5086446;28;20032;-81
2022/12/15 15:29:50;;;;;;;31.40;23.00;;;;;;;;;;5075347;28;20028;-81
2022/12/15 15:32:17;;;;;;;32.35;23.73;;;;;;;;;;5081599;28;20078;-81
2022/12/15 15:34:45;;;;;;;32.30;23.75;;;;;;;;;;5084269;28;20055;-81
2022/12/15 15:37:19;;;;;;;29.45;23.45;;;;;;;;;;5075758;28;20047;-81
2022/12/15 15:39:47;;;;;;;29.80;21.40;;;;;;;;;;5082409;28;20048;-82
2022/12/15 15:42:13;;;;;;;26.55;19.75;;;;;;;;;;5078632;28;20032;-82
2022/12/15 15:44:39;;;;;;;26.33;20.42;;;;;;;;;;5085694;28;20102;-81
2022/12/15 15:47:06;;;;;;;28.02;21.42;;;;;;;;;;5068706;28;20076;-82
2022/12/15 15:49:32;;;;;;;25.25;20.02;;;;;;;;;;5089711;28;20017;-82
2022/12/15 15:51:59;;;;;;;28.27;22.65;;;;;;;;;;5072488;28;20024;-81
2022/12/15 15:54:34;;;;;;;32.20;26.65;;;;;;;;;;5072236;28;20379;-82
2022/12/15 15:57:01;;;;;;;25.05;19.95;;;;;;;;;;5072416;28;20013;-81
2022/12/15 15:59:27;;;;;;;27.15;22.23;;;;;;;;;;5054463;28;20542;-81
2022/12/15 16:01:58;;;;;;;23.67;20.33;;;;;;;;;;5072330;28;20150;-82
2022/12/15 16:04:25;;;;;;;25.98;21.23;;;;;;;;;;5083919;28;20016;-82
2022/12/15 16:06:51;;;;;;;27.42;22.50;;;;;;;;;;5093546;28;20107;-82
2022/12/15 16:09:18;;;;;;;29.35;23.70;;;;;;;;;;5101056;28;20513;-82
2022/12/15 16:11:44;;;;;;;31.33;25.08;;;;;;;;;;5092500;28;20028;-81
2022/12/15 16:14:15;;;;;;;27.38;21.88;;;;;;;;;;5095994;28;20024;-80
2022/12/15 16:16:41;;;;;;;30.17;24.23;;;;;;;;;;5096807;28;20024;-81
2022/12/15 16:19:07;;;;;;;22.33;18.75;;;;;;;;;;5096743;28;20522;-81
2022/12/15 16:21:35;;;;;;;21.65;17.63;;;;;;;;;;5102671;27;20435;-82
2022/12/15 16:24:05;;;;;;;27.63;22.00;;;;;;;;;;5137543;27;20050;-82
2022/12/15 16:26:32;;;;;;;25.80;21.40;;;;;;;;;;5137257;27;20390;-82
2022/12/15 16:28:58;;;;;;;24.92;19.67;;;;;;;;;;5136985;27;20023;-82
2022/12/15 16:31:29;;;;;;;24.65;17.77;;;;;;;;;;5137100;27;20545;-82
2022/12/15 16:33:55;;;;;;;20.80;15.90;;;;;;;;;;5125808;27;20360;-81
2022/12/15 16:36:21;;;;;;;22.55;16.63;;;;;;;;;;5124884;27;20377;-82
2022/12/15 16:38:47;;;;;;;29.90;18.15;;;;;;;;;;5124799;27;20035;-82
2022/12/15 16:41:15;;;;;;;38.33;26.95;;;;;;;;;;5126069;27;20028;-82
2022/12/15 16:43:41;;;;;;;41.38;30.35;;;;;;;;;;5104197;28;20049;-84
2022/12/15 16:46:11;;;;;;;36.63;29.13;;;;;;;;;;5116311;28;20067;-82
2022/12/15 16:48:37;;;;;;;32.90;24.35;;;;;;;;;;5116354;28;20034;-82
2022/12/15 16:51:05;;;;;;;32.75;25.27;;;;;;;;;;5097856;28;20022;-82
2022/12/15 16:53:32;;;;;;;47.28;36.13;;;;;;;;;;5116145;28;20105;-82
2022/12/15 16:56:00;;;;;;;62.20;49.85;;;;;;;;;;5115980;28;20019;-82
2022/12/15 16:58:27;;;;;;;55.30;43.03;;;;;;;;;;5116143;28;20080;-83